Terminal Aerodrome Forecast
Issued by NWS Wilmington, OH

Home | Current Version | Previous Version | Text Only | Print | Product List | Glossary On
Versions: 1 2 3 4 5 6 7 8 9 10 11 12 13 14 15 16 17 18 19 20 21
808
FTUS41 KILN 101729
TAFDAY
TAF
KDAY 101729Z 1018/1118 28016G22KT P6SM -SHSN BKN025 OVC035
     FM110000 28010KT P6SM SCT025 BKN035
     FM110300 29008KT P6SM SCT025 SCT035
     FM111500 29008KT P6SM BKN025 BKN035=

USA.gov is the U.S. government's official web portal to all federal, state and local government web resources and services.